createdAt,value
2023-05-03T00:00:51.778Z,14.29
2023-05-03T00:01:48.525Z,14.24
2023-05-03T00:02:45.565Z,13.94
2023-05-03T00:03:43.481Z,14.64
2023-05-03T00:04:41.687Z,13.20
2023-05-03T00:05:39.478Z,14.47
2023-05-03T00:06:36.238Z,14.05
2023-05-03T00:07:33.050Z,14.52
2023-05-03T00:08:29.776Z,14.16
2023-05-03T00:09:26.513Z,12.86
2023-05-03T00:10:23.413Z,13.99
2023-05-03T00:11:21.196Z,14.77
2023-05-03T00:12:18.104Z,14.74
2023-05-03T00:13:14.788Z,14.64
2023-05-03T00:14:11.557Z,14.62
2023-05-03T00:15:09.849Z,14.13
2023-05-03T00:16:06.741Z,14.56
2023-05-03T00:17:03.547Z,14.65
2023-05-03T00:18:00.404Z,14.78
2023-05-03T00:18:57.532Z,14.80
2023-05-03T00:19:56.412Z,13.93
2023-05-03T00:20:54.657Z,14.17
2023-05-03T00:21:51.411Z,14.16
2023-05-03T00:22:48.505Z,14.72
2023-05-03T00:23:45.379Z,14.75
2023-05-03T00:24:42.109Z,13.99
2023-05-03T00:25:38.962Z,14.51
2023-05-03T00:26:36.005Z,14.50
2023-05-03T00:27:32.776Z,13.74
2023-05-03T00:28:29.523Z,14.46
2023-05-03T00:29:26.853Z,14.18
2023-05-03T00:30:25.349Z,14.40
2023-05-03T00:31:22.236Z,13.50
2023-05-03T00:32:20.910Z,14.22
2023-05-03T00:33:17.724Z,14.27
2023-05-03T00:34:14.610Z,13.79
2023-05-03T00:35:11.450Z,14.03
2023-05-03T00:36:13.961Z,14.08
2023-05-03T00:37:10.802Z,14.09
2023-05-03T00:38:07.616Z,14.39
2023-05-03T00:39:04.517Z,13.14
2023-05-03T00:40:01.465Z,14.21
2023-05-03T00:40:58.637Z,14.08
2023-05-03T00:41:59.232Z,13.23
2023-05-03T00:42:56.045Z,13.80
2023-05-03T00:43:52.884Z,12.35
2023-05-03T00:44:49.815Z,13.52
2023-05-03T00:45:47.633Z,14.02
2023-05-03T00:46:44.540Z,13.20
2023-05-03T00:47:41.554Z,13.52
2023-05-03T00:48:38.471Z,13.62
2023-05-03T00:49:35.766Z,13.57
2023-05-03T00:50:32.616Z,12.57
2023-05-03T00:51:29.644Z,12.90
2023-05-03T00:52:27.180Z,12.45
2023-05-03T00:53:24.312Z,13.67
2023-05-03T00:54:23.170Z,12.76
2023-05-03T00:55:20.931Z,11.11
2023-05-03T00:56:23.755Z,12.49
2023-05-03T00:57:22.885Z,13.34
2023-05-03T00:58:21.005Z,13.42
2023-05-03T00:59:19.238Z,13.05
2023-05-03T01:00:18.018Z,12.89
2023-05-03T01:01:15.554Z,13.24
2023-05-03T01:02:12.558Z,12.60
2023-05-03T01:03:09.546Z,13.22
2023-05-03T01:04:07.558Z,12.89
2023-05-03T01:05:07.422Z,12.45
2023-05-03T01:06:06.948Z,13.59
2023-05-03T01:07:23.608Z,13.35
2023-05-03T01:09:05.060Z,13.36
2023-05-03T01:10:10.249Z,13.27
2023-05-03T01:11:16.293Z,13.15
2023-05-03T01:12:45.077Z,12.74
2023-05-03T01:13:53.252Z,13.58
2023-05-03T01:15:12.476Z,13.52
2023-05-03T01:16:39.878Z,11.25
2023-05-03T01:17:50.654Z,12.45
2023-05-03T01:18:53.651Z,12.19
2023-05-03T01:19:56.459Z,12.17
2023-05-03T01:20:53.582Z,13.19
2023-05-03T01:22:03.188Z,13.72
2023-05-03T01:22:59.900Z,13.88
2023-05-03T01:24:17.938Z,13.11
2023-05-03T01:25:16.570Z,12.26
2023-05-03T01:26:23.461Z,12.45
2023-05-03T01:27:20.226Z,12.54
2023-05-03T01:28:17.113Z,13.42
2023-05-03T01:29:15.081Z,12.56
2023-05-03T01:30:13.307Z,12.96
2023-05-03T01:31:10.762Z,12.08
2023-05-03T01:32:18.844Z,12.37
2023-05-03T01:33:46.402Z,13.37
2023-05-03T01:34:54.774Z,13.09
2023-05-03T01:36:04.812Z,13.20
2023-05-03T01:37:04.708Z,13.43
2023-05-03T01:38:03.420Z,12.18
2023-05-03T01:39:10.223Z,12.85
2023-05-03T01:40:11.296Z,13.28
2023-05-03T01:41:18.815Z,13.07
2023-05-03T01:42:16.457Z,11.76
2023-05-03T01:43:16.594Z,13.59
2023-05-03T01:44:14.725Z,11.69
2023-05-03T01:45:12.886Z,13.38
2023-05-03T01:46:09.870Z,13.60
2023-05-03T01:47:08.823Z,12.44
2023-05-03T01:48:10.997Z,13.14
2023-05-03T01:49:07.795Z,12.70
2023-05-03T01:50:04.985Z,12.67
2023-05-03T01:51:02.500Z,13.63
2023-05-03T01:51:59.350Z,13.57
2023-05-03T01:52:56.154Z,12.09
2023-05-03T01:53:52.901Z,13.21
2023-05-03T01:54:49.647Z,12.85
2023-05-03T01:55:46.421Z,12.75
2023-05-03T01:56:43.233Z,13.52
2023-05-03T01:57:39.951Z,12.79
2023-05-03T01:58:36.811Z,11.58
2023-05-03T01:59:33.549Z,13.36
2023-05-03T02:00:30.831Z,13.54
2023-05-03T02:01:27.725Z,13.43
2023-05-03T02:02:24.656Z,12.58
2023-05-03T02:03:22.348Z,13.56
2023-05-03T02:04:19.146Z,13.57
2023-05-03T02:05:16.096Z,13.57
2023-05-03T02:06:13.042Z,13.49
2023-05-03T02:07:09.913Z,11.74
2023-05-03T02:08:06.771Z,12.88
2023-05-03T02:09:03.690Z,12.71
2023-05-03T02:10:00.826Z,13.58
2023-05-03T02:10:58.165Z,13.71
2023-05-03T02:11:55.093Z,12.85
2023-05-03T02:12:51.914Z,13.78
2023-05-03T02:13:50.766Z,13.46
2023-05-03T02:15:05.891Z,12.60
2023-05-03T02:16:02.598Z,13.54
2023-05-03T02:17:00.613Z,12.07
2023-05-03T02:17:58.747Z,13.57
2023-05-03T02:18:59.564Z,12.77
2023-05-03T02:19:56.489Z,12.80
2023-05-03T02:20:53.241Z,13.56
2023-05-03T02:21:50.063Z,13.57
2023-05-03T02:22:47.872Z,12.68
2023-05-03T02:23:44.647Z,13.49
2023-05-03T02:24:41.544Z,11.71
2023-05-03T02:25:38.304Z,12.57
2023-05-03T02:26:35.054Z,12.82
2023-05-03T02:27:32.175Z,13.44
2023-05-03T02:28:29.111Z,13.26
2023-05-03T02:29:26.167Z,13.23
2023-05-03T02:30:23.251Z,13.13
2023-05-03T02:31:20.031Z,13.09
2023-05-03T02:32:17.012Z,13.37
2023-05-03T02:33:13.918Z,13.37
2023-05-03T02:34:10.829Z,13.50
2023-05-03T02:35:08.033Z,13.47
2023-05-03T02:36:05.607Z,12.63
2023-05-03T02:37:02.384Z,13.05
2023-05-03T02:37:59.288Z,13.31
2023-05-03T02:38:56.108Z,13.42
2023-05-03T02:39:52.839Z,13.03
2023-05-03T02:40:49.728Z,11.89
2023-05-03T02:41:46.453Z,13.30
2023-05-03T02:42:43.254Z,13.38
2023-05-03T02:43:39.972Z,13.19
2023-05-03T02:44:36.697Z,13.31
2023-05-03T02:45:35.775Z,13.33
2023-05-03T02:46:32.781Z,12.36
2023-05-03T02:47:29.669Z,12.63
2023-05-03T02:48:26.467Z,10.79
2023-05-03T02:49:23.299Z,12.53
2023-05-03T02:50:20.229Z,12.78
2023-05-03T02:51:17.584Z,13.02
2023-05-03T02:52:14.356Z,12.18
2023-05-03T02:53:11.765Z,12.36
2023-05-03T02:54:08.558Z,12.07
2023-05-03T02:55:06.627Z,12.25
2023-05-03T02:56:03.598Z,12.73
2023-05-03T02:57:01.809Z,12.85
2023-05-03T02:57:58.873Z,11.09
2023-05-03T02:58:55.659Z,12.97
2023-05-03T02:59:52.508Z,12.70
2023-05-03T03:00:49.268Z,12.77
2023-05-03T03:01:47.187Z,13.21
2023-05-03T03:02:44.122Z,13.10
2023-05-03T03:03:41.137Z,13.14
2023-05-03T03:04:37.932Z,13.10
2023-05-03T03:05:34.715Z,12.31
2023-05-03T03:06:31.775Z,13.28
2023-05-03T03:07:28.622Z,12.64
2023-05-03T03:08:25.568Z,12.73
2023-05-03T03:09:22.620Z,12.44
2023-05-03T03:10:19.476Z,12.80
2023-05-03T03:11:16.543Z,11.78
2023-05-03T03:12:13.394Z,12.59
2023-05-03T03:13:10.641Z,12.73
2023-05-03T03:14:07.401Z,12.39
2023-05-03T03:15:04.759Z,13.27
2023-05-03T03:16:01.486Z,13.31
2023-05-03T03:16:58.411Z,13.26
2023-05-03T03:17:58.015Z,12.30
2023-05-03T03:18:54.832Z,12.90
2023-05-03T03:19:51.645Z,13.19
2023-05-03T03:20:48.403Z,13.37
2023-05-03T03:21:45.165Z,11.42
2023-05-03T03:22:43.872Z,13.41
2023-05-03T03:23:40.688Z,13.53
2023-05-03T03:24:37.547Z,13.47
2023-05-03T03:25:34.363Z,13.53
2023-05-03T03:26:31.204Z,12.76
2023-05-03T03:27:28.100Z,12.34
2023-05-03T03:28:24.856Z,13.29
2023-05-03T03:29:21.733Z,12.54
2023-05-03T03:30:18.628Z,12.49
2023-05-03T03:31:15.563Z,13.33
2023-05-03T03:32:12.353Z,12.86
2023-05-03T03:33:09.225Z,12.76
2023-05-03T03:34:06.055Z,13.06
2023-05-03T03:35:02.939Z,12.79
2023-05-03T03:35:59.744Z,13.45
2023-05-03T03:36:56.444Z,12.83
2023-05-03T03:37:53.843Z,11.91
2023-05-03T03:38:50.678Z,13.58
2023-05-03T03:39:47.549Z,13.47
2023-05-03T03:40:44.368Z,12.67
2023-05-03T03:41:41.388Z,13.10
2023-05-03T03:42:39.149Z,13.25
2023-05-03T03:43:35.882Z,13.19
2023-05-03T03:44:32.614Z,13.23
2023-05-03T03:45:29.458Z,12.70
2023-05-03T03:46:26.462Z,12.42
2023-05-03T03:47:23.325Z,13.48
2023-05-03T03:48:20.403Z,12.55
2023-05-03T03:49:17.254Z,13.32
2023-05-03T03:50:14.055Z,12.97
2023-05-03T03:51:11.564Z,13.33
2023-05-03T03:52:08.716Z,12.88
2023-05-03T03:53:06.233Z,12.52
2023-05-03T03:54:03.002Z,12.85
2023-05-03T03:54:59.815Z,12.65
2023-05-03T03:55:56.670Z,13.15
2023-05-03T03:56:53.839Z,13.29
2023-05-03T03:57:50.619Z,13.27
2023-05-03T03:58:47.416Z,13.23
2023-05-03T03:59:44.464Z,13.09
2023-05-03T04:00:41.702Z,13.09
2023-05-03T04:01:38.602Z,13.14
2023-05-03T04:02:35.453Z,11.81
2023-05-03T04:03:32.329Z,12.47
2023-05-03T04:04:29.197Z,13.35
2023-05-03T04:05:26.033Z,10.82
2023-05-03T04:06:22.873Z,13.19
2023-05-03T04:07:20.474Z,11.88
2023-05-03T04:08:17.217Z,10.46
2023-05-03T04:09:14.716Z,12.85
2023-05-03T04:10:11.543Z,11.62
2023-05-03T04:11:14.762Z,11.96
2023-05-03T04:12:11.674Z,12.87
2023-05-03T04:13:08.781Z,11.78
2023-05-03T04:14:05.566Z,13.11
2023-05-03T04:15:02.518Z,13.15
2023-05-03T04:15:59.397Z,13.14
2023-05-03T04:16:56.199Z,12.83
2023-05-03T04:17:53.037Z,12.76
2023-05-03T04:18:49.864Z,12.87
2023-05-03T04:19:47.294Z,13.06
2023-05-03T04:20:44.028Z,12.40
2023-05-03T04:21:40.872Z,12.52
2023-05-03T04:22:40.516Z,12.88
2023-05-03T04:23:37.655Z,12.08
2023-05-03T04:24:35.834Z,12.18
2023-05-03T04:25:32.561Z,11.44
2023-05-03T04:26:32.081Z,12.36
2023-05-03T04:27:29.130Z,11.51
2023-05-03T04:28:26.910Z,12.57
2023-05-03T04:29:23.848Z,11.80
2023-05-03T04:30:20.868Z,12.48
2023-05-03T04:31:20.008Z,12.45
2023-05-03T04:32:17.121Z,12.40
2023-05-03T04:33:13.986Z,11.52
2023-05-03T04:34:15.021Z,12.15
2023-05-03T04:35:12.729Z,12.39
2023-05-03T04:36:09.627Z,12.03
2023-05-03T04:37:06.336Z,12.53
2023-05-03T04:38:03.324Z,12.79
2023-05-03T04:39:00.134Z,12.72
2023-05-03T04:39:57.005Z,12.28
2023-05-03T04:40:54.479Z,12.37
2023-05-03T04:41:51.338Z,12.15
2023-05-03T04:42:48.383Z,12.91
2023-05-03T04:43:45.111Z,12.78
2023-05-03T04:44:44.850Z,12.16
2023-05-03T04:45:41.814Z,12.18
2023-05-03T04:46:39.767Z,12.13
2023-05-03T04:47:37.226Z,13.12
2023-05-03T04:48:34.262Z,12.33
2023-05-03T04:49:31.027Z,11.93
2023-05-03T04:50:27.777Z,12.77
2023-05-03T04:51:25.208Z,12.05
2023-05-03T04:52:22.057Z,12.75
2023-05-03T04:53:18.766Z,12.84
2023-05-03T04:54:15.647Z,12.12
2023-05-03T04:55:12.652Z,12.43
2023-05-03T04:56:09.530Z,12.90
2023-05-03T04:57:06.298Z,13.02
2023-05-03T04:58:03.125Z,12.90
2023-05-03T04:58:59.977Z,13.05
2023-05-03T04:59:56.734Z,12.85
2023-05-03T05:00:54.155Z,12.00
2023-05-03T05:01:50.944Z,10.75
2023-05-03T05:02:47.950Z,12.34
2023-05-03T05:03:45.015Z,12.17
2023-05-03T05:04:41.979Z,12.49
2023-05-03T05:05:38.806Z,11.94
2023-05-03T05:06:35.627Z,12.54
2023-05-03T05:07:32.364Z,12.78
2023-05-03T05:08:29.088Z,12.28
2023-05-03T05:09:28.020Z,11.80
2023-05-03T05:10:25.063Z,12.54
2023-05-03T05:11:22.385Z,12.47
2023-05-03T05:12:19.332Z,12.01
2023-05-03T05:13:17.805Z,10.47
2023-05-03T05:14:14.627Z,12.28
2023-05-03T05:15:11.737Z,12.21
2023-05-03T05:16:09.130Z,12.91
2023-05-03T05:17:05.884Z,11.31
2023-05-03T05:18:02.681Z,12.83
2023-05-03T05:18:59.483Z,12.57
2023-05-03T05:19:56.267Z,12.10
2023-05-03T05:20:53.075Z,12.07
2023-05-03T05:21:49.819Z,11.99
2023-05-03T05:22:46.568Z,12.15
2023-05-03T05:23:43.314Z,11.01
2023-05-03T05:24:40.046Z,12.58
2023-05-03T05:25:36.851Z,12.05
2023-05-03T05:26:33.790Z,12.24
2023-05-03T05:27:30.627Z,12.08
2023-05-03T05:28:28.254Z,12.44
2023-05-03T05:29:25.215Z,12.66
2023-05-03T05:30:23.454Z,12.42
2023-05-03T05:31:20.587Z,12.51
2023-05-03T05:32:17.447Z,12.48
2023-05-03T05:33:15.092Z,12.56
2023-05-03T05:34:13.451Z,11.87
2023-05-03T05:35:10.234Z,12.19
2023-05-03T05:36:07.295Z,11.30
2023-05-03T05:37:05.648Z,12.73
2023-05-03T05:57:06.162Z,12.62
2023-05-03T05:58:03.088Z,11.88
2023-05-03T05:59:00.938Z,12.87
2023-05-03T06:00:00.874Z,12.12
2023-05-03T06:01:01.340Z,12.80
2023-05-03T06:02:00.252Z,12.87
2023-05-03T06:02:57.140Z,12.92
2023-05-03T06:03:54.013Z,12.25
2023-05-03T06:04:50.891Z,12.45
2023-05-03T06:05:47.749Z,12.86
2023-05-03T06:06:44.506Z,11.61
2023-05-03T06:07:41.327Z,11.85
2023-05-03T06:08:38.196Z,12.65
2023-05-03T06:09:34.880Z,12.68
2023-05-03T06:10:31.786Z,12.77
2023-05-03T06:11:29.602Z,12.96
2023-05-03T06:12:27.343Z,13.06
2023-05-03T06:13:24.991Z,12.58
2023-05-03T06:14:21.760Z,12.62
2023-05-03T06:15:19.002Z,12.79
2023-05-03T06:16:16.410Z,11.50
2023-05-03T06:17:13.267Z,11.68
2023-05-03T06:18:10.129Z,12.62
2023-05-03T06:19:07.115Z,12.51
2023-05-03T06:20:05.042Z,11.84
2023-05-03T06:21:02.130Z,12.80
2023-05-03T06:21:58.921Z,12.63
2023-05-03T06:22:55.738Z,12.98
2023-05-03T06:23:52.676Z,11.34
2023-05-03T06:24:49.657Z,12.89
2023-05-03T06:25:47.607Z,12.17
2023-05-03T06:26:44.451Z,12.40
2023-05-03T06:27:41.227Z,12.00
2023-05-03T06:28:38.183Z,12.09
2023-05-03T06:29:35.067Z,12.21
2023-05-03T06:30:32.084Z,12.77
2023-05-03T06:31:28.912Z,12.97
2023-05-03T06:32:25.863Z,12.90
2023-05-03T06:33:22.625Z,12.94
2023-05-03T06:34:21.643Z,12.29
2023-05-03T06:35:19.751Z,12.07
2023-05-03T06:36:16.614Z,10.37
2023-05-03T06:37:14.188Z,12.00
2023-05-03T06:38:12.074Z,11.74
2023-05-03T06:39:09.600Z,12.85
2023-05-03T06:40:07.161Z,11.92
2023-05-03T06:41:03.974Z,12.15
2023-05-03T06:42:02.765Z,12.62
2023-05-03T06:42:59.537Z,12.97
2023-05-03T06:43:56.224Z,11.52
2023-05-03T06:44:53.050Z,12.37
2023-05-03T06:45:52.547Z,11.18
2023-05-03T06:46:49.389Z,12.92
2023-05-03T06:47:46.382Z,13.11
2023-05-03T06:48:43.193Z,13.05
2023-05-03T06:49:40.053Z,12.98
2023-05-03T06:50:37.022Z,13.29
2023-05-03T06:51:34.094Z,13.05
2023-05-03T06:52:30.819Z,12.83
2023-05-03T06:53:28.999Z,12.15
2023-05-03T06:54:25.987Z,13.15
2023-05-03T06:55:22.734Z,13.55
2023-05-03T06:56:19.500Z,12.19
2023-05-03T06:57:16.633Z,12.06
2023-05-03T06:58:13.366Z,13.42
2023-05-03T06:59:10.141Z,13.34
2023-05-03T07:00:07.794Z,12.56
2023-05-03T07:01:04.590Z,13.02
2023-05-03T07:02:01.453Z,12.81
2023-05-03T07:02:58.371Z,13.47
2023-05-03T07:03:55.936Z,13.66
2023-05-03T07:04:52.732Z,13.70
2023-05-03T07:05:49.546Z,12.56
2023-05-03T07:06:56.102Z,13.30
2023-05-03T07:07:53.596Z,13.74
2023-05-03T07:08:54.214Z,13.24
2023-05-03T07:09:51.029Z,12.87
2023-05-03T07:10:47.738Z,12.21
2023-05-03T07:11:49.558Z,12.78
2023-05-03T07:12:46.340Z,13.43
2023-05-03T07:13:43.041Z,12.67
2023-05-03T07:14:40.701Z,13.77
2023-05-03T07:15:37.442Z,13.11
2023-05-03T07:16:34.370Z,13.48
2023-05-03T07:17:31.370Z,11.58
2023-05-03T07:18:28.271Z,13.35
2023-05-03T07:19:25.089Z,12.72
2023-05-03T07:20:21.842Z,13.64
2023-05-03T07:21:18.581Z,13.01
2023-05-03T07:22:15.697Z,12.79
2023-05-03T07:23:12.537Z,13.60
2023-05-03T07:24:12.845Z,13.01
2023-05-03T07:25:09.979Z,13.38
2023-05-03T07:26:07.391Z,13.30
2023-05-03T07:27:04.292Z,13.45
2023-05-03T07:28:01.430Z,13.71
2023-05-03T07:28:58.192Z,14.04
2023-05-03T07:29:54.964Z,13.47
2023-05-03T07:30:52.558Z,14.18
2023-05-03T07:31:51.387Z,13.71
2023-05-03T07:32:50.866Z,13.19
2023-05-03T07:33:47.863Z,13.46
2023-05-03T07:34:44.811Z,13.64
2023-05-03T07:35:41.615Z,13.44
2023-05-03T07:36:39.747Z,13.47
2023-05-03T07:37:38.543Z,12.94
2023-05-03T07:38:35.922Z,12.60
2023-05-03T07:39:32.976Z,13.97
2023-05-03T07:40:33.145Z,12.75
2023-05-03T07:41:30.016Z,13.46
2023-05-03T07:42:26.811Z,13.10
2023-05-03T07:43:23.749Z,12.70
2023-05-03T07:44:20.634Z,14.32
2023-05-03T07:45:18.454Z,14.53
2023-05-03T07:46:15.293Z,14.14
2023-05-03T07:47:12.212Z,13.65
2023-05-03T07:48:09.019Z,13.61
2023-05-03T07:49:06.391Z,14.51
2023-05-03T07:50:05.226Z,14.38
2023-05-03T07:51:04.689Z,14.41
2023-05-03T07:52:01.697Z,13.03
2023-05-03T07:52:58.543Z,13.70
2023-05-03T07:53:56.404Z,13.81
2023-05-03T07:54:53.671Z,13.79
2023-05-03T07:55:54.532Z,14.37
2023-05-03T07:56:53.337Z,13.69
2023-05-03T07:57:53.165Z,14.67
2023-05-03T07:58:57.078Z,13.88
2023-05-03T08:00:02.821Z,13.66
2023-05-03T08:00:59.782Z,14.16
2023-05-03T08:01:57.244Z,14.44
2023-05-03T08:02:55.258Z,14.58
2023-05-03T08:03:53.729Z,12.55
2023-05-03T08:04:50.910Z,14.31
2023-05-03T08:05:48.230Z,14.47
2023-05-03T08:06:45.168Z,14.41
2023-05-03T08:07:42.200Z,13.42
2023-05-03T08:08:39.063Z,14.13
2023-05-03T08:09:36.716Z,14.85
2023-05-03T08:10:37.757Z,13.37
2023-05-03T08:11:34.929Z,14.92
2023-05-03T08:12:31.750Z,14.67
2023-05-03T08:13:28.445Z,13.95
2023-05-03T08:14:25.438Z,13.59
2023-05-03T08:15:22.231Z,14.68
2023-05-03T08:16:19.910Z,14.86
2023-05-03T08:17:16.870Z,15.09
2023-05-03T08:18:13.875Z,15.11
2023-05-03T08:19:10.743Z,14.88
2023-05-03T08:20:08.528Z,14.89
2023-05-03T08:21:06.370Z,14.12
2023-05-03T08:22:03.326Z,15.12
2023-05-03T08:23:01.625Z,15.25
2023-05-03T08:23:58.435Z,15.40
2023-05-03T08:24:56.539Z,14.59
2023-05-03T08:25:54.191Z,14.51
2023-05-03T08:26:51.689Z,15.21
2023-05-03T08:27:48.529Z,13.60
2023-05-03T08:28:45.351Z,14.98
2023-05-03T08:29:42.229Z,15.34
2023-05-03T08:30:39.420Z,14.82
2023-05-03T08:31:36.262Z,15.63
2023-05-03T08:32:33.053Z,14.44
2023-05-03T08:33:29.806Z,15.20
2023-05-03T08:34:26.525Z,15.47
2023-05-03T08:35:23.278Z,15.01
2023-05-03T08:36:20.077Z,14.84
2023-05-03T08:37:16.945Z,14.36
2023-05-03T08:38:14.074Z,14.95
2023-05-03T08:39:11.583Z,15.86
2023-05-03T08:40:11.854Z,15.53
2023-05-03T08:41:39.601Z,16.43
2023-05-03T08:42:39.579Z,15.57
2023-05-03T08:43:45.005Z,16.49
2023-05-03T08:44:51.013Z,16.61
2023-05-03T08:45:47.855Z,16.09
2023-05-03T08:46:44.788Z,16.28
2023-05-03T08:47:44.920Z,15.41
2023-05-03T08:48:44.632Z,15.97
2023-05-03T08:49:42.491Z,15.96
2023-05-03T08:50:42.605Z,16.13
2023-05-03T08:51:42.024Z,16.04
2023-05-03T08:52:43.378Z,14.04
2023-05-03T08:53:40.450Z,16.44
2023-05-03T08:54:37.506Z,16.34
2023-05-03T08:55:34.393Z,15.49
2023-05-03T08:56:46.659Z,16.53
2023-05-03T08:57:44.303Z,15.58
2023-05-03T08:58:41.158Z,16.38
2023-05-03T08:59:54.388Z,16.03
2023-05-03T09:00:51.144Z,15.43
2023-05-03T09:01:48.613Z,15.77
2023-05-03T09:02:45.926Z,14.92
2023-05-03T09:03:50.736Z,16.00
2023-05-03T09:04:47.647Z,16.06
2023-05-03T09:05:46.551Z,15.57
2023-05-03T09:06:43.332Z,15.22
2023-05-03T09:07:40.185Z,15.58
2023-05-03T09:08:43.625Z,15.67
2023-05-03T09:09:40.469Z,15.62
2023-05-03T09:10:39.860Z,15.25
2023-05-03T09:11:39.228Z,15.36
2023-05-03T09:12:38.640Z,14.79
2023-05-03T09:13:35.456Z,15.11
2023-05-03T09:14:43.238Z,15.42
2023-05-03T09:15:40.059Z,16.10
2023-05-03T09:16:36.946Z,16.39
2023-05-03T09:17:33.888Z,16.53
2023-05-03T09:18:30.697Z,16.34
2023-05-03T09:19:27.403Z,16.33
2023-05-03T09:20:36.443Z,14.98
2023-05-03T09:21:33.648Z,16.33
2023-05-03T09:22:33.476Z,16.31
2023-05-03T09:23:31.856Z,17.17
2023-05-03T09:24:28.939Z,17.30
2023-05-03T09:25:43.967Z,17.32
2023-05-03T09:26:42.288Z,17.02
2023-05-03T09:27:39.036Z,17.20
2023-05-03T09:28:42.992Z,16.76
2023-05-03T09:29:39.742Z,15.95
2023-05-03T09:30:36.931Z,15.24
2023-05-03T09:31:36.221Z,16.28
2023-05-03T09:32:48.541Z,16.12
2023-05-03T09:33:45.639Z,17.25
2023-05-03T09:34:43.361Z,16.57
2023-05-03T09:35:56.796Z,17.08
2023-05-03T09:36:53.958Z,17.33
2023-05-03T09:37:50.920Z,17.24
2023-05-03T09:38:47.946Z,17.03
2023-05-03T09:39:47.633Z,16.96
2023-05-03T09:40:48.316Z,16.19
2023-05-03T09:41:45.947Z,16.30
2023-05-03T09:43:06.997Z,17.25
2023-05-03T09:44:03.875Z,17.35
2023-05-03T09:45:00.879Z,16.64
2023-05-03T09:46:12.998Z,16.84
2023-05-03T09:47:11.358Z,17.23
2023-05-03T09:48:08.878Z,17.45
2023-05-03T09:49:05.710Z,17.14
2023-05-03T09:50:02.526Z,16.30
2023-05-03T09:50:59.332Z,15.72
2023-05-03T09:51:58.353Z,16.50
2023-05-03T09:52:56.550Z,16.94
2023-05-03T09:53:56.745Z,16.93
2023-05-03T09:54:54.628Z,17.87
2023-05-03T09:55:52.544Z,17.81
2023-05-03T09:56:49.533Z,17.80
2023-05-03T09:57:48.418Z,17.14
2023-05-03T09:58:45.355Z,18.15
2023-05-03T09:59:45.362Z,18.72
2023-05-03T10:00:44.110Z,17.82
2023-05-03T10:01:41.828Z,18.26
2023-05-03T10:02:38.946Z,18.11
2023-05-03T10:03:44.052Z,17.31
2023-05-03T10:04:47.693Z,18.40
2023-05-03T10:05:49.097Z,17.87
2023-05-03T10:06:49.522Z,17.27
2023-05-03T10:07:51.601Z,18.23
2023-05-03T10:09:06.244Z,17.99
2023-05-03T10:10:05.033Z,17.05
2023-05-03T10:11:04.749Z,17.53
2023-05-03T10:12:07.498Z,16.94
2023-05-03T10:13:04.634Z,17.40
2023-05-03T10:14:01.680Z,17.75
2023-05-03T10:15:02.036Z,18.14
2023-05-03T10:16:25.901Z,18.13
2023-05-03T10:17:46.164Z,17.89
2023-05-03T10:18:56.713Z,18.29
2023-05-03T10:20:01.239Z,17.36
2023-05-03T10:21:13.189Z,18.59
2023-05-03T10:22:11.666Z,18.46
2023-05-03T10:24:25.565Z,19.37
2023-05-03T10:25:22.422Z,17.25
2023-05-03T10:26:19.400Z,18.10
2023-05-03T10:27:17.087Z,18.11
2023-05-03T10:28:15.022Z,18.23
2023-05-03T10:29:45.809Z,19.33
2023-05-03T10:30:42.698Z,18.30
2023-05-03T10:31:48.369Z,17.69
2023-05-03T10:32:46.779Z,17.18
2023-05-03T10:33:43.823Z,17.94
2023-05-03T10:34:43.099Z,17.17
2023-05-03T10:35:43.261Z,17.42
2023-05-03T10:36:49.807Z,17.23
2023-05-03T10:37:50.688Z,18.50
2023-05-03T10:38:47.496Z,17.45
2023-05-03T10:39:47.367Z,17.95
2023-05-03T10:40:44.985Z,18.36
2023-05-03T10:41:41.984Z,17.81
2023-05-03T10:42:39.867Z,18.18
2023-05-03T10:43:36.742Z,18.85
2023-05-03T10:44:50.183Z,18.80
2023-05-03T10:45:48.904Z,17.84
2023-05-03T10:46:46.634Z,18.20
2023-05-03T10:47:43.476Z,18.95
2023-05-03T10:48:41.143Z,18.50
2023-05-03T10:49:37.924Z,19.38
2023-05-03T10:50:34.746Z,18.76
2023-05-03T10:51:37.192Z,19.54
2023-05-03T10:52:39.980Z,19.50
2023-05-03T10:53:42.768Z,18.69
2023-05-03T10:54:39.612Z,19.30
2023-05-03T10:55:36.633Z,17.38
2023-05-03T10:56:33.821Z,19.54
2023-05-03T10:57:32.945Z,19.48
2023-05-03T10:58:35.394Z,17.81
2023-05-03T10:59:47.801Z,19.03
2023-05-03T11:00:45.365Z,18.55
2023-05-03T11:01:46.633Z,18.59
2023-05-03T11:03:09.046Z,19.08
2023-05-03T11:04:19.881Z,16.71
2023-05-03T11:05:19.088Z,19.21
2023-05-03T11:06:36.477Z,18.95
2023-05-03T11:07:33.525Z,19.05
2023-05-03T11:08:37.157Z,18.02
2023-05-03T11:09:34.817Z,18.65
2023-05-03T11:10:31.597Z,18.76
2023-05-03T11:11:28.462Z,18.82
2023-05-03T11:12:25.549Z,17.98
2023-05-03T11:13:22.418Z,16.67
2023-05-03T11:14:19.190Z,18.42
2023-05-03T11:15:16.110Z,18.01
2023-05-03T11:16:12.941Z,18.95
2023-05-03T11:17:09.957Z,18.76
2023-05-03T11:18:14.271Z,18.10
2023-05-03T11:19:11.317Z,18.20
2023-05-03T11:20:11.047Z,18.57
2023-05-03T11:21:07.879Z,18.85
2023-05-03T11:22:04.842Z,18.10
2023-05-03T11:23:02.654Z,18.61
2023-05-03T11:23:59.857Z,18.05
2023-05-03T11:24:56.882Z,18.81
2023-05-03T11:25:53.945Z,17.93
2023-05-03T11:26:50.713Z,19.16
2023-05-03T11:27:47.967Z,19.33
2023-05-03T11:28:45.452Z,18.18
2023-05-03T11:29:48.276Z,19.27
2023-05-03T11:30:47.127Z,19.00
2023-05-03T11:31:44.075Z,18.38
2023-05-03T11:32:44.565Z,17.34
2023-05-03T11:33:41.688Z,16.97
2023-05-03T11:34:40.036Z,19.04
2023-05-03T11:35:37.776Z,18.16
2023-05-03T11:36:35.072Z,18.78
2023-05-03T11:37:32.408Z,18.15
2023-05-03T11:38:32.635Z,18.30
2023-05-03T11:39:32.967Z,17.88
2023-05-03T11:40:29.918Z,18.13
2023-05-03T11:41:27.311Z,19.09
2023-05-03T11:42:26.086Z,18.13
2023-05-03T11:43:22.854Z,19.02
2023-05-03T11:44:19.902Z,18.19
2023-05-03T11:45:16.871Z,17.95
2023-05-03T11:46:22.414Z,18.10
2023-05-03T11:47:19.671Z,19.32
2023-05-03T11:48:17.214Z,18.49
2023-05-03T11:49:18.573Z,18.72
2023-05-03T11:50:15.522Z,19.14
2023-05-03T11:51:12.659Z,19.24
2023-05-03T11:52:09.493Z,19.51
2023-05-03T11:53:06.431Z,18.70
2023-05-03T11:54:13.556Z,19.15
2023-05-03T11:55:17.987Z,19.26
2023-05-03T11:56:18.001Z,19.44
2023-05-03T11:57:16.310Z,18.52
2023-05-03T11:58:20.457Z,19.27
2023-05-03T11:59:17.708Z,18.72
2023-05-03T12:00:20.830Z,18.40
2023-05-03T12:01:22.782Z,19.19
2023-05-03T12:02:19.643Z,18.86
2023-05-03T12:03:21.323Z,17.88
2023-05-03T12:04:18.644Z,18.47
2023-05-03T12:05:16.381Z,18.41
2023-05-03T12:06:13.744Z,18.69
2023-05-03T12:07:13.490Z,19.14
2023-05-03T12:08:13.037Z,19.24
2023-05-03T12:09:15.960Z,17.78
2023-05-03T12:10:22.908Z,18.82
2023-05-03T12:11:23.287Z,18.58
2023-05-03T12:12:26.831Z,17.48
2023-05-03T12:13:38.743Z,18.55
2023-05-03T12:14:57.797Z,18.81
2023-05-03T12:16:10.764Z,18.20
2023-05-03T12:17:11.277Z,18.75
2023-05-03T12:18:10.974Z,18.87
2023-05-03T12:22:26.271Z,18.44
2023-05-03T12:23:27.332Z,18.19
2023-05-03T12:24:24.860Z,18.59
2023-05-03T12:25:25.892Z,18.57
2023-05-03T12:26:25.762Z,18.01
2023-05-03T12:27:23.879Z,17.96
2023-05-03T12:28:21.534Z,18.47
2023-05-03T12:29:19.679Z,18.36
2023-05-03T12:30:17.727Z,18.47
2023-05-03T12:31:18.297Z,17.79
2023-05-03T12:32:15.528Z,17.69
2023-05-03T12:33:15.140Z,17.49
2023-05-03T12:34:32.409Z,18.68
2023-05-03T12:35:32.756Z,18.27
2023-05-03T12:36:37.102Z,17.52
2023-05-03T12:37:38.288Z,18.36
2023-05-03T12:38:37.581Z,18.17
2023-05-03T12:39:39.224Z,18.05
2023-05-03T12:40:37.203Z,17.12
2023-05-03T12:42:05.629Z,18.14
2023-05-03T12:42:50.978Z,17.26
2023-05-03T12:43:48.088Z,17.38
2023-05-03T12:44:48.008Z,17.84
2023-05-03T12:45:52.244Z,16.55
2023-05-03T12:46:52.932Z,17.77
2023-05-03T12:47:50.757Z,17.43
2023-05-03T12:48:47.798Z,17.51
2023-05-03T12:49:46.354Z,16.87
2023-05-03T12:50:45.573Z,15.88
2023-05-03T12:51:43.158Z,17.21
2023-05-03T12:52:43.664Z,17.71
2023-05-03T12:53:46.664Z,17.16
2023-05-03T12:54:48.907Z,17.55
2023-05-03T12:56:00.407Z,17.49
2023-05-03T12:58:30.480Z,17.05
2023-05-03T13:00:16.773Z,17.38
2023-05-03T13:02:05.141Z,16.78
2023-05-03T13:03:37.179Z,17.18
2023-05-03T13:05:40.095Z,15.84
2023-05-03T13:06:42.885Z,17.03
2023-05-03T13:07:43.043Z,17.32